Time;durP1;ratioP1;P1;durP2;ratioP2;P2;SDS_P1;SDS_P2;PMS_P1;PMS_P2;Temp;Humidity;BMP_temperature;BMP_pressure;BME280_temperature;BME280_humidity;BME280_pressure;Samples;Min_cycle;Max_cycle;Signal;HPM_P1;HPM_P2
2023/01/19 00:00:14;;;;;;;;;;;23.40;30.30;;;;;;475661;250;2363;-45
2023/01/19 00:02:14;;;;;;;;;;;23.40;30.40;;;;;;475629;250;2132;-45
2023/01/19 00:04:15;;;;;;;;;;;23.50;30.40;;;;;;475598;250;2245;-45
2023/01/19 00:06:17;;;;;;;;;;;23.50;30.30;;;;;;475662;250;1949;-45
2023/01/19 00:08:18;;;;;;;;;;;23.50;30.40;;;;;;475409;251;2073;-45
2023/01/19 00:10:19;;;;;;;;;;;23.50;30.40;;;;;;475298;250;1742;-45
2023/01/19 00:12:21;;;;;;;;;;;23.50;30.30;;;;;;475388;250;1854;-45
2023/01/19 00:14:22;;;;;;;;;;;23.50;30.30;;;;;;475506;250;1641;-45
2023/01/19 00:16:23;;;;;;;;;;;23.50;30.30;;;;;;475660;250;1891;-45
2023/01/19 00:18:25;;;;;;;;;;;23.50;30.30;;;;;;475746;250;1674;-45
2023/01/19 00:20:26;;;;;;;;;;;23.50;30.30;;;;;;475781;250;2143;-45
2023/01/19 00:22:27;;;;;;;;;;;23.50;30.30;;;;;;475695;250;1763;-45
2023/01/19 00:24:29;;;;;;;;;;;23.50;30.30;;;;;;475526;251;2208;-44
2023/01/19 00:26:30;;;;;;;;;;;23.50;30.30;;;;;;475622;250;1659;-45
2023/01/19 00:28:31;;;;;;;;;;;23.50;30.30;;;;;;475490;247;1718;-45
2023/01/19 00:30:33;;;;;;;;;;;23.60;30.30;;;;;;475667;250;1826;-45
2023/01/19 00:32:34;;;;;;;;;;;23.60;30.40;;;;;;475702;250;1980;-45
2023/01/19 00:34:38;;;;;;;;;;;23.60;30.30;;;;;;475620;250;2279;-45
2023/01/19 00:36:37;;;;;;;;;;;23.60;30.40;;;;;;475500;250;2223;-45
2023/01/19 00:38:39;;;;;;;;;;;23.60;30.30;;;;;;475466;251;2177;-45
2023/01/19 00:40:40;;;;;;;;;;;23.60;30.30;;;;;;475685;250;2217;-45
2023/01/19 00:42:43;;;;;;;;;;;23.60;30.30;;;;;;475559;250;1922;-45
2023/01/19 00:44:43;;;;;;;;;;;23.60;30.30;;;;;;475509;250;2200;-45
2023/01/19 00:46:44;;;;;;;;;;;23.60;30.30;;;;;;475899;250;2114;-45
2023/01/19 00:48:45;;;;;;;;;;;23.60;30.30;;;;;;475745;250;1941;-45
2023/01/19 00:50:47;;;;;;;;;;;23.60;30.30;;;;;;475721;250;1722;-45
2023/01/19 00:52:48;;;;;;;;;;;23.70;30.40;;;;;;475569;250;2387;-45
2023/01/19 00:54:49;;;;;;;;;;;23.60;30.30;;;;;;475555;250;1743;-45
2023/01/19 00:56:51;;;;;;;;;;;23.70;30.30;;;;;;475591;250;2036;-45
2023/01/19 00:58:52;;;;;;;;;;;23.70;30.40;;;;;;475555;251;1830;-45
2023/01/19 01:00:56;;;;;;;;;;;23.60;30.40;;;;;;475469;251;1694;-45
2023/01/19 01:02:55;;;;;;;;;;;23.40;30.70;;;;;;475620;250;1985;-45
2023/01/19 01:04:56;;;;;;;;;;;23.20;30.90;;;;;;475445;251;2216;-45
2023/01/19 01:06:58;;;;;;;;;;;23.00;31.20;;;;;;475385;251;1566;-45
2023/01/19 01:08:59;;;;;;;;;;;22.90;31.50;;;;;;475513;250;1920;-45
2023/01/19 01:11:00;;;;;;;;;;;22.70;31.70;;;;;;475716;250;1969;-45
2023/01/19 01:13:02;;;;;;;;;;;22.60;31.80;;;;;;475618;250;1903;-45
2023/01/19 01:15:03;;;;;;;;;;;22.60;32.00;;;;;;475863;250;1787;-45
2023/01/19 01:17:04;;;;;;;;;;;22.50;32.10;;;;;;475796;250;1675;-45
2023/01/19 01:19:06;;;;;;;;;;;22.40;32.20;;;;;;475556;251;1681;-45
2023/01/19 01:21:07;;;;;;;;;;;22.30;32.40;;;;;;475484;251;1690;-45
2023/01/19 01:23:08;;;;;;;;;;;22.20;32.40;;;;;;475786;250;2357;-45
2023/01/19 01:25:10;;;;;;;;;;;22.20;32.50;;;;;;475516;251;2205;-45
2023/01/19 01:27:12;;;;;;;;;;;22.10;32.60;;;;;;475644;250;1998;-45
2023/01/19 01:29:12;;;;;;;;;;;22.10;32.70;;;;;;475570;251;2545;-44
2023/01/19 01:31:14;;;;;;;;;;;22.00;32.70;;;;;;475796;250;1991;-45
2023/01/19 01:33:15;;;;;;;;;;;22.00;32.80;;;;;;475545;250;2002;-45
2023/01/19 01:35:16;;;;;;;;;;;22.00;32.90;;;;;;475735;250;1712;-45
2023/01/19 01:37:18;;;;;;;;;;;21.90;32.80;;;;;;475639;251;1692;-45
2023/01/19 01:39:19;;;;;;;;;;;21.90;32.90;;;;;;475559;250;1599;-45
2023/01/19 01:41:20;;;;;;;;;;;21.90;33.00;;;;;;475760;250;2150;-44
2023/01/19 01:43:22;;;;;;;;;;;21.80;33.00;;;;;;475573;251;2062;-45
2023/01/19 01:45:23;;;;;;;;;;;21.80;33.00;;;;;;475747;250;2169;-45
2023/01/19 01:47:24;;;;;;;;;;;21.80;33.10;;;;;;475587;251;1723;-45
2023/01/19 01:49:25;;;;;;;;;;;21.80;33.10;;;;;;475721;248;1694;-45
2023/01/19 01:51:27;;;;;;;;;;;21.70;33.20;;;;;;475858;250;1350;-45
2023/01/19 01:53:28;;;;;;;;;;;21.70;33.20;;;;;;475838;250;1718;-45
2023/01/19 01:55:29;;;;;;;;;;;21.70;33.30;;;;;;475679;250;2434;-44
2023/01/19 01:57:31;;;;;;;;;;;21.60;33.30;;;;;;475940;250;2141;-45
2023/01/19 01:59:33;;;;;;;;;;;21.60;33.30;;;;;;475501;251;1856;-44
2023/01/19 02:03:53;;;;;;;;;;;21.50;33.40;;;;;;475533;250;1562;-44
2023/01/19 02:05:56;;;;;;;;;;;21.50;33.40;;;;;;475584;250;2216;-45
2023/01/19 02:14:54;;;;;;;;;;;22.30;32.30;;;;;;475517;250;1761;-45
2023/01/19 02:16:55;;;;;;;;;;;22.40;32.10;;;;;;475446;250;2168;-45
2023/01/19 02:18:56;;;;;;;;;;;22.40;32.10;;;;;;475378;251;2542;-45
2023/01/19 02:20:57;;;;;;;;;;;22.30;32.10;;;;;;475540;250;1858;-45
2023/01/19 02:22:59;;;;;;;;;;;22.10;32.40;;;;;;475495;251;2088;-45
2023/01/19 02:25:01;;;;;;;;;;;22.00;32.60;;;;;;475487;250;2184;-45
2023/01/19 02:27:01;;;;;;;;;;;21.90;32.70;;;;;;475490;251;2181;-45
2023/01/19 02:29:03;;;;;;;;;;;21.80;32.90;;;;;;475520;251;1707;-45
2023/01/19 02:31:05;;;;;;;;;;;21.70;33.00;;;;;;475440;251;1672;-45
2023/01/19 02:33:06;;;;;;;;;;;21.70;33.10;;;;;;475485;250;3946;-45
2023/01/19 02:35:07;;;;;;;;;;;21.60;33.10;;;;;;475503;250;1698;-44
2023/01/19 02:37:08;;;;;;;;;;;21.60;33.20;;;;;;475539;250;1910;-44
2023/01/19 02:39:09;;;;;;;;;;;21.50;33.30;;;;;;475374;250;2141;-45
2023/01/19 02:41:11;;;;;;;;;;;21.50;33.30;;;;;;475398;250;2626;-44
2023/01/19 02:43:12;;;;;;;;;;;21.50;33.40;;;;;;475375;250;1746;-45
2023/01/19 02:45:14;;;;;;;;;;;21.40;33.40;;;;;;475328;250;2169;-44
2023/01/19 02:47:15;;;;;;;;;;;21.40;33.40;;;;;;475254;251;1980;-45
2023/01/19 02:49:16;;;;;;;;;;;21.40;33.50;;;;;;475465;250;1930;-45
2023/01/19 02:51:17;;;;;;;;;;;21.40;33.50;;;;;;475300;251;1743;-45
2023/01/19 02:53:18;;;;;;;;;;;21.40;33.60;;;;;;475327;251;1516;-45
2023/01/19 02:55:20;;;;;;;;;;;21.40;33.60;;;;;;475447;250;1992;-45
2023/01/19 02:57:22;;;;;;;;;;;21.30;33.60;;;;;;475501;250;1572;-44
2023/01/19 02:59:22;;;;;;;;;;;21.30;33.60;;;;;;475601;250;2066;-45
2023/01/19 03:01:24;;;;;;;;;;;21.30;33.70;;;;;;475531;251;1635;-45
2023/01/19 03:03:26;;;;;;;;;;;21.30;33.70;;;;;;475467;250;2247;-44
2023/01/19 03:05:27;;;;;;;;;;;21.30;33.70;;;;;;475628;250;2200;-45
2023/01/19 03:07:29;;;;;;;;;;;21.20;33.70;;;;;;475665;250;1701;-45
2023/01/19 03:09:30;;;;;;;;;;;21.30;33.70;;;;;;475839;250;2002;-45
2023/01/19 03:11:31;;;;;;;;;;;21.50;33.40;;;;;;475715;250;2092;-45
2023/01/19 03:13:33;;;;;;;;;;;21.70;33.00;;;;;;475727;250;1957;-45
2023/01/19 03:15:34;;;;;;;;;;;21.90;32.80;;;;;;475775;250;2281;-45
2023/01/19 03:17:35;;;;;;;;;;;22.00;32.50;;;;;;475954;250;2163;-45
2023/01/19 03:19:37;;;;;;;;;;;22.10;32.30;;;;;;475766;251;1816;-45
2023/01/19 03:21:38;;;;;;;;;;;22.20;32.10;;;;;;475998;250;1699;-45
2023/01/19 03:23:40;;;;;;;;;;;22.30;32.00;;;;;;475739;250;1590;-45
2023/01/19 03:25:41;;;;;;;;;;;22.40;32.00;;;;;;475935;250;2144;-45
2023/01/19 03:27:42;;;;;;;;;;;22.40;31.80;;;;;;475789;250;1742;-45
2023/01/19 03:29:43;;;;;;;;;;;22.50;31.70;;;;;;475577;251;1772;-45
2023/01/19 03:31:45;;;;;;;;;;;22.60;31.70;;;;;;475697;250;1714;-45
2023/01/19 03:33:46;;;;;;;;;;;22.60;31.60;;;;;;475758;250;1669;-45
2023/01/19 03:35:48;;;;;;;;;;;22.60;31.50;;;;;;475646;251;1652;-45
2023/01/19 03:37:49;;;;;;;;;;;22.60;31.40;;;;;;475815;250;2152;-45
2023/01/19 03:39:51;;;;;;;;;;;22.70;31.50;;;;;;475638;250;2352;-45
2023/01/19 03:41:52;;;;;;;;;;;22.70;31.40;;;;;;475718;250;1567;-45
2023/01/19 03:43:54;;;;;;;;;;;22.70;31.40;;;;;;475567;251;1564;-45
2023/01/19 03:45:55;;;;;;;;;;;22.80;31.30;;;;;;475597;251;2203;-45
2023/01/19 03:47:56;;;;;;;;;;;22.80;31.30;;;;;;475592;250;1587;-45
2023/01/19 03:49:57;;;;;;;;;;;22.80;31.20;;;;;;475496;251;1780;-45
2023/01/19 03:51:59;;;;;;;;;;;22.90;31.20;;;;;;475750;250;1727;-45
2023/01/19 03:54:00;;;;;;;;;;;22.90;31.20;;;;;;475476;251;1706;-45
2023/01/19 03:56:01;;;;;;;;;;;22.90;31.10;;;;;;475517;251;1724;-45
2023/01/19 03:58:03;;;;;;;;;;;22.90;31.10;;;;;;475479;250;1738;-45
2023/01/19 04:00:04;;;;;;;;;;;23.00;31.10;;;;;;475526;250;2441;-45
2023/01/19 04:02:05;;;;;;;;;;;23.00;31.10;;;;;;475604;250;1908;-45
2023/01/19 04:04:07;;;;;;;;;;;23.00;31.10;;;;;;475512;250;2211;-45
2023/01/19 04:06:08;;;;;;;;;;;23.00;31.00;;;;;;475521;250;2185;-45
2023/01/19 04:08:10;;;;;;;;;;;23.10;31.00;;;;;;475401;251;1658;-45
2023/01/19 04:10:11;;;;;;;;;;;23.10;31.00;;;;;;475332;250;1905;-45
2023/01/19 04:12:12;;;;;;;;;;;23.10;30.90;;;;;;475281;250;1790;-45
2023/01/19 04:14:13;;;;;;;;;;;23.10;30.90;;;;;;475419;250;1686;-45
2023/01/19 04:16:18;;;;;;;;;;;23.10;30.90;;;;;;475389;251;1769;-45
2023/01/19 04:18:16;;;;;;;;;;;23.10;30.90;;;;;;475258;251;2173;-45
2023/01/19 04:20:18;;;;;;;;;;;23.20;30.90;;;;;;475733;250;1715;-45
2023/01/19 04:22:19;;;;;;;;;;;23.20;30.90;;;;;;475465;250;2120;-45
2023/01/19 04:24:20;;;;;;;;;;;23.20;30.90;;;;;;475674;250;1999;-45
2023/01/19 04:26:22;;;;;;;;;;;23.20;30.80;;;;;;475444;251;2161;-45
2023/01/19 04:28:23;;;;;;;;;;;23.20;30.80;;;;;;475487;251;1961;-45
2023/01/19 04:30:24;;;;;;;;;;;23.20;30.80;;;;;;475834;250;1726;-45
2023/01/19 04:32:26;;;;;;;;;;;23.30;30.80;;;;;;475897;250;1572;-45
2023/01/19 04:34:27;;;;;;;;;;;23.30;30.80;;;;;;475657;251;1901;-45
2023/01/19 04:36:28;;;;;;;;;;;23.30;30.80;;;;;;475669;251;1935;-45
2023/01/19 04:38:30;;;;;;;;;;;23.30;30.70;;;;;;475809;250;1714;-45
2023/01/19 04:40:31;;;;;;;;;;;23.30;30.70;;;;;;475637;250;2713;-45
2023/01/19 04:42:32;;;;;;;;;;;23.30;30.70;;;;;;475554;251;2168;-45
2023/01/19 04:44:34;;;;;;;;;;;23.30;30.70;;;;;;475965;250;2199;-45
2023/01/19 04:46:35;;;;;;;;;;;23.40;30.70;;;;;;475607;251;2199;-45
2023/01/19 04:48:36;;;;;;;;;;;23.30;30.60;;;;;;475622;251;1695;-45
2023/01/19 04:50:38;;;;;;;;;;;23.40;30.70;;;;;;475805;250;1647;-45
2023/01/19 04:52:39;;;;;;;;;;;23.40;30.70;;;;;;476074;250;1941;-45
2023/01/19 04:54:40;;;;;;;;;;;23.40;30.70;;;;;;475763;250;2083;-45
2023/01/19 04:56:42;;;;;;;;;;;23.40;30.70;;;;;;475650;251;1214;-44
2023/01/19 04:58:43;;;;;;;;;;;23.40;30.70;;;;;;475836;250;1296;-45
2023/01/19 05:00:44;;;;;;;;;;;23.40;30.60;;;;;;475912;250;1699;-45
2023/01/19 05:02:46;;;;;;;;;;;23.40;30.60;;;;;;475824;251;1686;-45
2023/01/19 05:04:47;;;;;;;;;;;23.40;30.60;;;;;;475844;251;1559;-45
2023/01/19 05:06:48;;;;;;;;;;;23.40;30.60;;;;;;475759;251;2172;-45
2023/01/19 05:08:50;;;;;;;;;;;23.40;30.60;;;;;;475623;251;1594;-45
2023/01/19 05:10:51;;;;;;;;;;;23.50;30.60;;;;;;475666;250;2383;-45
2023/01/19 05:12:52;;;;;;;;;;;23.50;30.60;;;;;;475570;250;1792;-45
2023/01/19 05:14:54;;;;;;;;;;;23.50;30.60;;;;;;475806;250;1874;-44
2023/01/19 05:16:55;;;;;;;;;;;23.50;30.60;;;;;;475474;251;2363;-45
2023/01/19 05:18:56;;;;;;;;;;;23.50;30.60;;;;;;475527;250;1682;-45
2023/01/19 05:20:58;;;;;;;;;;;23.50;30.60;;;;;;475374;250;1833;-45
2023/01/19 05:22:59;;;;;;;;;;;23.50;30.60;;;;;;475360;251;1843;-45
2023/01/19 05:25:01;;;;;;;;;;;23.50;30.50;;;;;;475397;251;1869;-45
2023/01/19 05:27:02;;;;;;;;;;;23.50;30.60;;;;;;475400;251;3546;-45
2023/01/19 05:29:04;;;;;;;;;;;23.60;30.50;;;;;;475467;250;1980;-45
2023/01/19 05:31:05;;;;;;;;;;;23.50;30.50;;;;;;475612;250;2259;-45
2023/01/19 05:33:06;;;;;;;;;;;23.60;30.50;;;;;;475606;250;1696;-45
2023/01/19 05:35:08;;;;;;;;;;;23.60;30.50;;;;;;475466;250;1550;-45
2023/01/19 05:37:09;;;;;;;;;;;23.60;30.50;;;;;;475599;251;1724;-45
2023/01/19 05:39:10;;;;;;;;;;;23.60;30.50;;;;;;475493;250;2248;-45
2023/01/19 05:41:13;;;;;;;;;;;23.60;30.50;;;;;;475885;250;1657;-45
2023/01/19 05:43:13;;;;;;;;;;;23.60;30.50;;;;;;475627;251;1958;-45
2023/01/19 05:45:14;;;;;;;;;;;23.60;30.50;;;;;;475672;251;1677;-45
2023/01/19 05:47:16;;;;;;;;;;;23.60;30.50;;;;;;475700;250;2164;-45
2023/01/19 05:49:17;;;;;;;;;;;23.60;30.60;;;;;;475494;250;2178;-45
2023/01/19 05:51:18;;;;;;;;;;;23.50;30.60;;;;;;475817;250;1226;-45
2023/01/19 05:53:20;;;;;;;;;;;23.40;30.80;;;;;;475884;250;1938;-45
2023/01/19 05:55:21;;;;;;;;;;;23.20;31.10;;;;;;475673;250;1722;-45
2023/01/19 05:57:22;;;;;;;;;;;23.00;31.40;;;;;;475682;250;1644;-45
2023/01/19 05:59:23;;;;;;;;;;;22.90;31.60;;;;;;475620;251;1973;-45
2023/01/19 06:01:25;;;;;;;;;;;22.70;31.80;;;;;;475567;250;1715;-45
2023/01/19 06:03:26;;;;;;;;;;;22.60;32.10;;;;;;475764;250;2049;-45
2023/01/19 06:05:27;;;;;;;;;;;22.50;32.20;;;;;;475965;250;1803;-45
2023/01/19 06:07:30;;;;;;;;;;;22.40;32.30;;;;;;475452;250;2248;-45
2023/01/19 06:09:30;;;;;;;;;;;22.30;32.40;;;;;;475552;250;1946;-45
2023/01/19 06:11:31;;;;;;;;;;;22.20;32.50;;;;;;475715;250;1682;-45
2023/01/19 06:13:33;;;;;;;;;;;22.20;32.60;;;;;;475722;250;2048;-45
2023/01/19 06:15:34;;;;;;;;;;;22.10;32.70;;;;;;475490;251;1778;-44
2023/01/19 06:17:35;;;;;;;;;;;22.10;32.80;;;;;;475367;251;2017;-45
2023/01/19 06:19:37;;;;;;;;;;;22.20;32.70;;;;;;475518;250;2018;-45
2023/01/19 06:21:38;;;;;;;;;;;22.40;32.40;;;;;;475805;250;2174;-45
2023/01/19 06:23:39;;;;;;;;;;;22.50;32.20;;;;;;475535;250;1981;-45
2023/01/19 06:25:41;;;;;;;;;;;22.50;32.10;;;;;;475573;250;1676;-45
2023/01/19 06:27:42;;;;;;;;;;;22.40;32.30;;;;;;475252;250;2212;-45
2023/01/19 06:29:43;;;;;;;;;;;22.30;32.50;;;;;;475328;251;1709;-44
2023/01/19 06:31:45;;;;;;;;;;;22.20;32.60;;;;;;475253;250;2205;-45
2023/01/19 06:33:46;;;;;;;;;;;22.10;32.70;;;;;;475575;250;2186;-44
2023/01/19 06:35:47;;;;;;;;;;;22.00;32.90;;;;;;475753;246;1921;-45
2023/01/19 06:37:49;;;;;;;;;;;21.90;33.00;;;;;;475461;250;2752;-44
2023/01/19 06:39:50;;;;;;;;;;;21.90;33.10;;;;;;475266;251;1940;-45
2023/01/19 06:41:51;;;;;;;;;;;21.90;33.10;;;;;;475303;251;1711;-44
2023/01/19 06:43:53;;;;;;;;;;;21.80;33.10;;;;;;475373;250;2224;-44
2023/01/19 06:45:54;;;;;;;;;;;21.80;33.20;;;;;;475258;250;1727;-45
2023/01/19 06:47:55;;;;;;;;;;;21.80;33.30;;;;;;475454;251;2211;-45
2023/01/19 06:49:57;;;;;;;;;;;21.70;33.30;;;;;;475585;248;1966;-45
2023/01/19 06:51:58;;;;;;;;;;;21.70;33.40;;;;;;475729;250;1731;-45
2023/01/19 06:53:59;;;;;;;;;;;21.70;33.40;;;;;;475538;250;1590;-45
2023/01/19 06:56:01;;;;;;;;;;;21.60;33.40;;;;;;475675;251;1581;-44
2023/01/19 06:58:02;;;;;;;;;;;21.60;33.50;;;;;;475581;251;1845;-45
2023/01/19 07:00:06;;;;;;;;;;;21.60;33.50;;;;;;475496;250;1572;-44
2023/01/19 07:02:05;;;;;;;;;;;21.50;33.50;;;;;;475077;251;1686;-45
2023/01/19 07:04:06;;;;;;;;;;;21.50;33.50;;;;;;475356;247;1990;-44
2023/01/19 07:06:07;;;;;;;;;;;21.50;33.60;;;;;;475382;250;2193;-44
2023/01/19 07:08:09;;;;;;;;;;;21.40;33.50;;;;;;475369;251;2155;-45
2023/01/19 07:10:11;;;;;;;;;;;21.40;33.60;;;;;;475652;250;1739;-45
2023/01/19 07:12:12;;;;;;;;;;;21.40;33.70;;;;;;475527;246;2151;-45
2023/01/19 07:14:13;;;;;;;;;;;21.40;33.70;;;;;;475396;251;1609;-44
2023/01/19 07:16:15;;;;;;;;;;;21.40;33.70;;;;;;475545;250;2047;-44
2023/01/19 07:18:16;;;;;;;;;;;21.30;33.60;;;;;;475464;250;1962;-44
2023/01/19 07:20:18;;;;;;;;;;;21.30;33.60;;;;;;475384;251;2097;-44
2023/01/19 07:22:19;;;;;;;;;;;21.30;33.60;;;;;;475538;251;2159;-45
2023/01/19 07:24:20;;;;;;;;;;;21.30;33.70;;;;;;475372;251;1757;-45
2023/01/19 07:26:23;;;;;;;;;;;21.20;33.60;;;;;;475300;250;2164;-45
2023/01/19 07:28:23;;;;;;;;;;;21.20;33.60;;;;;;475078;251;2133;-45
2023/01/19 07:30:24;;;;;;;;;;;21.20;33.60;;;;;;475241;250;1650;-44
2023/01/19 07:32:26;;;;;;;;;;;21.20;33.70;;;;;;475140;250;1375;-45
2023/01/19 07:34:27;;;;;;;;;;;21.20;33.60;;;;;;475215;250;1898;-45
2023/01/19 07:36:28;;;;;;;;;;;21.20;33.60;;;;;;475348;250;1823;-45
2023/01/19 07:38:29;;;;;;;;;;;21.20;33.60;;;;;;475508;250;2179;-44
2023/01/19 07:40:32;;;;;;;;;;;21.20;33.60;;;;;;475346;250;2036;-44
2023/01/19 07:42:32;;;;;;;;;;;21.20;33.60;;;;;;475133;251;2488;-45
2023/01/19 07:44:33;;;;;;;;;;;21.20;33.50;;;;;;475137;250;2416;-45
2023/01/19 07:46:35;;;;;;;;;;;21.10;33.50;;;;;;475254;251;2199;-44
2023/01/19 07:48:36;;;;;;;;;;;21.10;33.50;;;;;;475321;250;2118;-45
2023/01/19 07:50:37;;;;;;;;;;;21.10;33.60;;;;;;475294;251;1651;-44
2023/01/19 07:52:39;;;;;;;;;;;21.10;33.50;;;;;;475177;250;2172;-44
2023/01/19 07:54:40;;;;;;;;;;;21.10;33.60;;;;;;474850;250;1927;-44
2023/01/19 07:56:41;;;;;;;;;;;21.10;33.60;;;;;;475011;250;1877;-44
2023/01/19 07:58:43;;;;;;;;;;;21.10;33.50;;;;;;474739;251;1784;-44
2023/01/19 08:00:44;;;;;;;;;;;21.00;33.50;;;;;;474844;251;2161;-44
2023/01/19 08:02:48;;;;;;;;;;;21.00;33.40;;;;;;474722;250;1973;-44
2023/01/19 08:04:46;;;;;;;;;;;21.10;33.50;;;;;;474536;250;2141;-44
2023/01/19 08:06:48;;;;;;;;;;;21.10;33.50;;;;;;474909;250;2231;-44
2023/01/19 08:08:49;;;;;;;;;;;21.00;33.40;;;;;;475125;250;1704;-44
2023/01/19 08:10:51;;;;;;;;;;;21.00;33.40;;;;;;474936;250;1354;-44
2023/01/19 08:12:52;;;;;;;;;;;21.00;33.40;;;;;;475108;250;1756;-44
2023/01/19 08:14:53;;;;;;;;;;;21.00;33.40;;;;;;475104;251;1739;-44
2023/01/19 08:16:54;;;;;;;;;;;21.00;33.30;;;;;;475286;250;1823;-44
2023/01/19 08:18:56;;;;;;;;;;;21.00;33.40;;;;;;474879;250;2490;-44
2023/01/19 08:20:57;;;;;;;;;;;21.00;33.40;;;;;;474802;250;1785;-44
2023/01/19 08:22:59;;;;;;;;;;;21.00;33.40;;;;;;474780;251;1658;-44
2023/01/19 08:25:00;;;;;;;;;;;21.00;33.40;;;;;;474933;250;2380;-44
2023/01/19 08:27:02;;;;;;;;;;;21.00;33.30;;;;;;475236;250;2169;-44
2023/01/19 08:29:03;;;;;;;;;;;21.00;33.30;;;;;;475201;250;1801;-44
2023/01/19 08:31:04;;;;;;;;;;;21.00;33.30;;;;;;475274;251;2498;-44
2023/01/19 08:33:06;;;;;;;;;;;21.00;33.40;;;;;;475287;250;1777;-44
2023/01/19 08:35:07;;;;;;;;;;;21.00;33.40;;;;;;475018;250;1873;-44
2023/01/19 08:37:09;;;;;;;;;;;21.00;33.30;;;;;;475148;250;1993;-44
2023/01/19 08:39:11;;;;;;;;;;;20.90;33.30;;;;;;475157;251;1803;-44
2023/01/19 08:41:12;;;;;;;;;;;20.90;33.30;;;;;;475113;250;1715;-44
2023/01/19 08:43:13;;;;;;;;;;;21.00;33.30;;;;;;475119;250;1331;-44
2023/01/19 08:45:14;;;;;;;;;;;21.00;33.40;;;;;;475037;250;1738;-44
2023/01/19 08:47:16;;;;;;;;;;;21.10;33.30;;;;;;475131;250;2204;-43
2023/01/19 08:49:17;;;;;;;;;;;21.00;33.50;;;;;;475074;251;2088;-44
2023/01/19 08:51:18;;;;;;;;;;;21.00;33.30;;;;;;475144;250;1850;-44
2023/01/19 08:53:22;;;;;;;;;;;21.00;33.20;;;;;;475183;250;1485;-44
2023/01/19 08:55:21;;;;;;;;;;;21.00;33.30;;;;;;475057;246;1607;-44
2023/01/19 08:57:23;;;;;;;;;;;20.90;33.30;;;;;;475256;250;1559;-44
2023/01/19 08:59:24;;;;;;;;;;;21.00;33.40;;;;;;475080;250;1705;-44
2023/01/19 09:01:25;;;;;;;;;;;21.00;33.40;;;;;;475115;251;1724;-44
2023/01/19 09:03:27;;;;;;;;;;;21.00;33.40;;;;;;475096;246;2678;-44
2023/01/19 09:05:28;;;;;;;;;;;21.00;33.30;;;;;;474962;251;1855;-44
2023/01/19 09:07:29;;;;;;;;;;;21.00;33.50;;;;;;475057;251;2203;-44
2023/01/19 09:09:30;;;;;;;;;;;21.00;33.40;;;;;;475221;250;1961;-44
2023/01/19 09:11:33;;;;;;;;;;;21.00;33.20;;;;;;474966;250;1707;-44
2023/01/19 09:13:34;;;;;;;;;;;21.00;33.20;;;;;;475104;250;1594;-44
2023/01/19 09:15:36;;;;;;;;;;;20.90;33.30;;;;;;475027;251;2052;-43
2023/01/19 09:17:36;;;;;;;;;;;21.00;33.40;;;;;;475102;250;1879;-44
2023/01/19 09:19:38;;;;;;;;;;;21.00;33.20;;;;;;475032;251;2111;-44
2023/01/19 09:21:39;;;;;;;;;;;21.00;33.20;;;;;;474956;250;1769;-44
2023/01/19 09:23:40;;;;;;;;;;;21.00;33.20;;;;;;475060;250;2413;-43
2023/01/19 09:25:41;;;;;;;;;;;21.10;33.20;;;;;;474992;250;1797;-44
2023/01/19 09:27:43;;;;;;;;;;;21.00;33.20;;;;;;475161;250;2592;-44
2023/01/19 09:29:51;;;;;;;;;;;21.00;33.20;;;;;;475147;250;2523;-44
2023/01/19 09:31:46;;;;;;;;;;;21.00;32.90;;;;;;474528;251;1884;-44
2023/01/19 09:33:47;;;;;;;;;;;21.00;32.80;;;;;;475111;250;1689;-44
2023/01/19 09:35:49;;;;;;;;;;;20.90;32.60;;;;;;475172;250;1705;-43
2023/01/19 09:37:49;;;;;;;;;;;20.90;32.60;;;;;;474891;250;2118;-44
2023/01/19 09:39:51;;;;;;;;;;;20.90;31.90;;;;;;475024;250;2458;-43
2023/01/19 09:41:52;;;;;;;;;;;21.10;32.40;;;;;;475086;251;1851;-44
2023/01/19 09:43:53;;;;;;;;;;;21.40;31.80;;;;;;474808;250;2019;-44
2023/01/19 09:45:55;;;;;;;;;;;21.60;31.20;;;;;;474630;251;2012;-44
2023/01/19 09:47:56;;;;;;;;;;;21.90;30.80;;;;;;474967;250;2203;-44
2023/01/19 09:49:58;;;;;;;;;;;22.00;30.50;;;;;;474914;251;1927;-44
2023/01/19 09:51:59;;;;;;;;;;;22.20;30.00;;;;;;474861;250;1851;-44
2023/01/19 09:54:00;;;;;;;;;;;22.30;29.90;;;;;;474909;250;1979;-44
2023/01/19 09:56:02;;;;;;;;;;;22.40;29.70;;;;;;474881;251;1835;-44
2023/01/19 09:58:03;;;;;;;;;;;22.50;29.60;;;;;;474929;250;1819;-44
2023/01/19 10:00:04;;;;;;;;;;;22.60;29.60;;;;;;475039;250;1878;-44
2023/01/19 10:02:06;;;;;;;;;;;22.70;29.50;;;;;;474857;251;2317;-45
2023/01/19 10:04:07;;;;;;;;;;;22.70;29.40;;;;;;474998;251;2135;-44
2023/01/19 10:06:08;;;;;;;;;;;22.80;29.50;;;;;;475000;251;1758;-44
2023/01/19 10:08:10;;;;;;;;;;;22.80;29.40;;;;;;475121;250;2220;-44
2023/01/19 10:10:11;;;;;;;;;;;22.80;29.30;;;;;;474920;250;1830;-44
2023/01/19 10:12:12;;;;;;;;;;;22.90;29.30;;;;;;474969;251;2127;-44
2023/01/19 10:14:14;;;;;;;;;;;22.90;29.30;;;;;;475232;250;1834;-44
2023/01/19 10:16:15;;;;;;;;;;;22.90;29.10;;;;;;475108;250;1278;-44
2023/01/19 10:18:16;;;;;;;;;;;22.90;29.10;;;;;;475063;251;1709;-44
2023/01/19 10:20:18;;;;;;;;;;;23.00;29.10;;;;;;475268;250;1796;-45
2023/01/19 10:22:19;;;;;;;;;;;23.00;29.10;;;;;;475027;250;1634;-44
2023/01/19 10:24:21;;;;;;;;;;;23.00;29.20;;;;;;475155;250;1804;-44
2023/01/19 10:26:22;;;;;;;;;;;23.00;29.10;;;;;;475187;250;1710;-44
2023/01/19 10:28:23;;;;;;;;;;;23.10;29.00;;;;;;475074;251;2204;-44
2023/01/19 10:30:24;;;;;;;;;;;23.10;29.10;;;;;;475279;250;1737;-44
2023/01/19 10:32:26;;;;;;;;;;;23.10;29.00;;;;;;475238;250;1816;-44
2023/01/19 10:34:27;;;;;;;;;;;23.10;28.90;;;;;;475183;250;2614;-44
2023/01/19 10:36:28;;;;;;;;;;;23.20;28.90;;;;;;475324;250;2102;-44
2023/01/19 10:38:32;;;;;;;;;;;23.10;29.00;;;;;;475259;250;1700;-44
2023/01/19 10:40:31;;;;;;;;;;;23.20;29.00;;;;;;475201;246;2306;-44
2023/01/19 10:42:32;;;;;;;;;;;23.20;28.90;;;;;;475393;250;1913;-44
2023/01/19 10:44:34;;;;;;;;;;;23.20;28.90;;;;;;475217;246;1636;-44
2023/01/19 10:46:35;;;;;;;;;;;23.20;28.80;;;;;;475300;246;1261;-44
2023/01/19 10:48:36;;;;;;;;;;;23.30;28.90;;;;;;475311;250;2207;-45
2023/01/19 10:50:39;;;;;;;;;;;23.30;28.80;;;;;;474962;250;1779;-44
2023/01/19 10:52:43;;;;;;;;;;;23.30;28.70;;;;;;474960;250;1184;-44
2023/01/19 10:54:41;;;;;;;;;;;23.30;28.80;;;;;;474959;250;2312;-44
2023/01/19 10:56:43;;;;;;;;;;;23.30;28.80;;;;;;475076;250;1843;-44
2023/01/19 10:58:44;;;;;;;;;;;23.30;28.80;;;;;;475133;251;1764;-44
2023/01/19 11:00:45;;;;;;;;;;;23.30;28.80;;;;;;475213;246;1594;-43
2023/01/19 11:02:47;;;;;;;;;;;23.40;28.90;;;;;;474989;250;1776;-44
2023/01/19 11:04:48;;;;;;;;;;;23.40;28.70;;;;;;474866;251;1644;-44
2023/01/19 11:06:50;;;;;;;;;;;23.40;28.80;;;;;;474940;251;1700;-45
2023/01/19 11:08:51;;;;;;;;;;;23.40;28.70;;;;;;474888;250;2160;-44
2023/01/19 11:10:52;;;;;;;;;;;23.40;28.70;;;;;;474968;250;1867;-44
2023/01/19 11:12:54;;;;;;;;;;;23.50;28.70;;;;;;474963;250;2326;-44
2023/01/19 11:14:56;;;;;;;;;;;23.40;28.50;;;;;;475027;250;1701;-44
2023/01/19 11:16:57;;;;;;;;;;;23.50;28.60;;;;;;474758;247;1572;-44
2023/01/19 11:19:00;;;;;;;;;;;23.50;28.60;;;;;;474806;250;1733;-44
2023/01/19 11:21:01;;;;;;;;;;;23.50;28.60;;;;;;474836;250;2146;-44
2023/01/19 11:23:01;;;;;;;;;;;23.50;28.70;;;;;;474844;251;1997;-44
2023/01/19 11:25:03;;;;;;;;;;;23.50;28.70;;;;;;474989;251;1700;-44
2023/01/19 11:27:04;;;;;;;;;;;23.50;28.70;;;;;;474975;246;1717;-44
2023/01/19 11:29:05;;;;;;;;;;;23.50;28.70;;;;;;475030;250;2192;-45
2023/01/19 11:31:06;;;;;;;;;;;23.60;28.70;;;;;;474837;251;1728;-44
2023/01/19 11:33:08;;;;;;;;;;;23.50;28.50;;;;;;475010;250;1717;-45
2023/01/19 11:35:09;;;;;;;;;;;23.60;28.60;;;;;;475142;250;1632;-44
2023/01/19 11:37:10;;;;;;;;;;;23.60;28.70;;;;;;474925;251;1682;-44
2023/01/19 11:39:12;;;;;;;;;;;23.60;28.60;;;;;;475290;250;1706;-44
2023/01/19 11:41:13;;;;;;;;;;;23.60;28.70;;;;;;474994;251;2414;-44
2023/01/19 11:43:14;;;;;;;;;;;23.60;28.50;;;;;;475078;250;1978;-44
2023/01/19 11:45:16;;;;;;;;;;;23.60;28.60;;;;;;475151;250;1750;-45
2023/01/19 11:47:17;;;;;;;;;;;23.60;28.50;;;;;;475007;250;1429;-44
2023/01/19 11:49:18;;;;;;;;;;;23.70;28.60;;;;;;474826;251;2208;-44
2023/01/19 11:51:20;;;;;;;;;;;23.60;28.60;;;;;;475060;250;1694;-44
2023/01/19 11:53:23;;;;;;;;;;;23.70;28.50;;;;;;475090;250;1689;-44
2023/01/19 12:21:26;;;;;;;;;;;23.80;28.40;;;;;;469812;242;2575;-43
2023/01/19 12:23:28;;;;;;;;;;;23.80;28.30;;;;;;462632;256;1436;-43
2023/01/19 12:25:29;;;;;;;;;;;23.80;28.40;;;;;;462552;256;2227;-43
2023/01/19 12:27:30;;;;;;;;;;;23.90;28.50;;;;;;462688;256;1687;-43
2023/01/19 12:29:32;;;;;;;;;;;23.90;28.30;;;;;;462461;256;2199;-43
2023/01/19 12:31:33;;;;;;;;;;;23.90;28.30;;;;;;462247;256;1689;-43